Time;durP1;ratioP1;P1;durP2;ratioP2;P2;SDS_P1;SDS_P2;PMS_P1;PMS_P2;Temp;Humidity;BMP_temperature;BMP_pressure;BME280_temperature;BME280_humidity;BME280_pressure;Samples;Min_cycle;Max_cycle;Signal;HPM_P1;HPM_P2
2022/04/29 00:01:10;;;;;;;36.25;20.90;;;;;;;-141.50;100.00;63355.56;5071639;28;20080;-79
2022/04/29 00:03:37;;;;;;;36.83;20.67;;;;;;;-141.50;100.00;63355.56;5075241;28;20493;-79
2022/04/29 00:06:03;;;;;;;33.63;19.25;;;;;;;-141.50;100.00;63355.56;5073245;28;20091;-79
2022/04/29 00:08:30;;;;;;;34.45;19.33;;;;;;;-141.50;100.00;63355.56;5074091;28;20082;-79
2022/04/29 00:10:56;;;;;;;36.05;19.70;;;;;;;-141.50;100.00;63355.56;5075665;28;20076;-80
2022/04/29 00:13:23;;;;;;;37.38;19.90;;;;;;;-141.50;100.00;63355.56;5075433;28;20083;-80
2022/04/29 00:15:50;;;;;;;36.65;20.70;;;;;;;-141.50;100.00;63355.56;5073698;28;20074;-81
2022/04/29 00:18:16;;;;;;;37.40;19.25;;;;;;;-141.50;100.00;63355.56;5073650;28;20075;-80
2022/04/29 00:20:45;;;;;;;35.53;18.52;;;;;;;-141.50;100.00;63355.56;5073412;28;20072;-80
2022/04/29 00:23:12;;;;;;;34.67;19.83;;;;;;;-141.50;100.00;63355.56;5076102;28;20048;-80
2022/04/29 00:25:49;;;;;;;44.00;20.92;;;;;;;-141.50;100.00;63355.56;5075048;28;20090;-79
2022/04/29 00:28:18;;;;;;;42.17;21.80;;;;;;;-141.50;100.00;63355.56;5072135;28;20052;-80
2022/04/29 00:30:50;;;;;;;40.63;21.88;;;;;;;-141.50;100.00;63355.56;5074743;28;20075;-79
2022/04/29 00:33:23;;;;;;;42.67;22.10;;;;;;;-141.50;100.00;63355.56;5075294;28;20064;-80
2022/04/29 00:35:49;;;;;;;32.20;18.60;;;;;;;-141.50;100.00;63355.56;5073479;28;20362;-80
2022/04/29 00:38:17;;;;;;;33.00;16.73;;;;;;;-141.50;100.00;63355.56;5074934;28;20121;-81
2022/04/29 00:40:48;;;;;;;30.55;18.63;;;;;;;-141.50;100.00;63355.56;5075347;28;20083;-81
2022/04/29 00:43:14;;;;;;;26.33;15.13;;;;;;;-141.50;100.00;63355.56;5074124;28;20126;-81
2022/04/29 00:45:41;;;;;;;27.27;16.23;;;;;;;-141.50;100.00;63355.56;5075500;28;20080;-80
2022/04/29 00:48:08;;;;;;;39.63;19.58;;;;;;;-141.50;100.00;63355.56;5074801;28;20145;-80
2022/04/29 00:50:37;;;;;;;33.40;19.33;;;;;;;-141.50;100.00;63355.56;5074208;28;20140;-78
2022/04/29 00:53:03;;;;;;;36.80;19.95;;;;;;;-141.50;100.00;63355.56;5073513;28;20554;-79
2022/04/29 00:55:30;;;;;;;39.08;21.85;;;;;;;-141.50;100.00;63355.56;5076347;28;20045;-80
2022/04/29 00:58:02;;;;;;;37.72;21.02;;;;;;;-141.50;100.00;63355.56;5079274;28;20240;-79
2022/04/29 01:00:31;;;;;;;33.53;21.02;;;;;;;-141.50;100.00;63355.56;5089274;28;20052;-78
2022/04/29 01:03:00;;;;;;;44.05;20.85;;;;;;;-141.50;100.00;63355.56;5075227;28;20048;-80
2022/04/29 01:05:27;;;;;;;41.17;20.85;;;;;;;-141.50;100.00;63355.56;5075867;28;20041;-80
2022/04/29 01:07:59;;;;;;;39.65;21.92;;;;;;;-141.50;100.00;63355.56;5079889;28;20427;-79
2022/04/29 01:10:26;;;;;;;39.72;22.42;;;;;;;-141.50;100.00;63355.56;5082020;28;20083;-78
2022/04/29 01:12:58;;;;;;;40.78;22.30;;;;;;;-141.50;100.00;63355.56;5081230;28;20068;-79
2022/04/29 01:15:28;;;;;;;37.97;20.95;;;;;;;-141.50;100.00;63355.56;5079497;28;20541;-79
2022/04/29 01:18:08;;;;;;;37.15;20.52;;;;;;;-141.50;100.00;63355.56;5078903;28;20051;-78
2022/04/29 01:20:36;;;;;;;36.47;20.52;;;;;;;-141.50;100.00;63355.56;5081115;28;20048;-79
2022/04/29 01:23:14;;;;;;;35.95;20.20;;;;;;;-141.50;100.00;63355.56;5084253;28;20110;-80
2022/04/29 01:25:42;;;;;;;31.60;19.65;;;;;;;-141.50;100.00;63355.56;5084215;28;20040;-78
2022/04/29 01:28:12;;;;;;;33.00;15.73;;;;;;;-141.50;100.00;63355.56;5079836;28;20094;-80
2022/04/29 01:30:39;;;;;;;25.63;14.80;;;;;;;-141.50;100.00;63355.56;5073928;28;20056;-80
2022/04/29 01:33:19;;;;;;;;;;;;;;;;;;;;;
2022/04/29 01:35:46;;;;;;;22.23;13.18;;;;;;;-141.50;100.00;63355.56;5074693;28;20080;-80
2022/04/29 01:38:15;;;;;;;20.40;11.93;;;;;;;-141.50;100.00;63355.56;5075825;28;20072;-81
2022/04/29 01:40:42;;;;;;;19.40;13.35;;;;;;;-141.50;100.00;63355.56;5075473;28;20048;-79
2022/04/29 01:43:08;;;;;;;21.33;13.50;;;;;;;-141.50;100.00;63355.56;5073835;28;20087;-80
2022/04/29 01:45:35;;;;;;;27.85;16.00;;;;;;;-141.50;100.00;63355.56;5072353;28;20127;-80
2022/04/29 01:48:02;;;;;;;26.92;15.00;;;;;;;-141.50;100.00;63355.56;5073429;28;20083;-80
2022/04/29 01:50:28;;;;;;;20.77;12.82;;;;;;;-141.50;100.00;63355.56;5072314;28;20080;-80
2022/04/29 01:52:55;;;;;;;22.60;13.77;;;;;;;-141.50;100.00;63355.56;5074099;28;20052;-79
2022/04/29 01:55:25;;;;;;;24.67;13.60;;;;;;;-141.50;100.00;63355.56;5074695;28;20049;-79
2022/04/29 01:57:56;;;;;;;28.88;15.35;;;;;;;-141.50;100.00;63355.56;5076487;28;20466;-80
2022/04/29 02:00:23;;;;;;;29.92;16.63;;;;;;;-141.50;100.00;63355.56;5070263;28;20087;-79
2022/04/29 02:02:56;;;;;;;27.17;15.20;;;;;;;-141.50;100.00;63355.56;5068365;28;20083;-80
2022/04/29 02:05:23;;;;;;;27.05;15.00;;;;;;;-141.50;100.00;63355.56;5070836;28;20135;-79
2022/04/29 02:07:49;;;;;;;35.00;17.98;;;;;;;-141.50;100.00;63355.56;5071301;28;20423;-78
2022/04/29 02:10:16;;;;;;;28.33;17.08;;;;;;;-141.50;100.00;63355.56;5071683;28;20080;-79
2022/04/29 02:12:43;;;;;;;32.17;17.15;;;;;;;-141.50;100.00;63355.56;5070791;28;20059;-79
2022/04/29 02:15:12;;;;;;;32.83;17.13;;;;;;;-141.50;100.00;63355.56;5072471;28;20545;-78
2022/04/29 02:17:38;;;;;;;28.73;17.00;;;;;;;-141.50;100.00;63355.56;5070948;28;20041;-79
2022/04/29 02:20:05;;;;;;;28.88;17.73;;;;;;;-141.50;100.00;63355.56;5072384;28;20083;-79
2022/04/29 02:22:40;;;;;;;29.65;17.33;;;;;;;-141.50;100.00;63355.56;5071414;28;20052;-79
2022/04/29 02:25:08;;;;;;;29.92;17.92;;;;;;;-141.50;100.00;63355.56;5071974;28;20048;-79
2022/04/29 02:27:39;;;;;;;36.85;19.42;;;;;;;-141.50;100.00;63355.56;5072515;28;20076;-80
2022/04/29 02:30:06;;;;;;;37.05;19.25;;;;;;;-141.50;100.00;63355.56;5072744;28;20128;-80
2022/04/29 02:32:35;;;;;;;38.65;19.77;;;;;;;-141.50;100.00;63355.56;5072037;28;20074;-79
2022/04/29 02:35:07;;;;;;;35.60;20.45;;;;;;;-141.50;100.00;63355.56;5073139;28;20114;-80
2022/04/29 02:37:34;;;;;;;37.58;20.38;;;;;;;-141.50;100.00;63355.56;5073827;28;20049;-80
2022/04/29 02:40:00;;;;;;;48.20;21.90;;;;;;;-141.50;100.00;63355.56;5072326;28;20109;-80
2022/04/29 02:42:33;;;;;;;45.58;21.33;;;;;;;-141.50;100.00;63355.56;5072530;28;20086;-80
2022/04/29 02:45:03;;;;;;;40.58;22.08;;;;;;;-141.50;100.00;63355.56;5072068;28;20056;-80
2022/04/29 02:47:31;;;;;;;44.58;21.73;;;;;;;-141.50;100.00;63355.56;5072527;28;20057;-80
2022/04/29 02:50:09;;;;;;;38.53;20.33;;;;;;;-141.50;100.00;63355.56;5071674;28;20062;-79
2022/04/29 02:52:35;;;;;;;43.47;22.48;;;;;;;-141.50;100.00;63355.56;5068535;28;20155;-79
2022/04/29 02:55:02;;;;;;;46.75;21.67;;;;;;;-141.50;100.00;63355.56;5072640;28;20084;-80
2022/04/29 02:57:30;;;;;;;40.17;21.63;;;;;;;-141.50;100.00;63355.56;5073566;28;20082;-79
2022/04/29 03:00:04;;;;;;;38.45;21.63;;;;;;;-141.50;100.00;63355.56;5080727;28;20117;-80
2022/04/29 03:02:31;;;;;;;38.60;21.30;;;;;;;-141.50;100.00;63355.56;5069743;28;20110;-80
2022/04/29 03:05:08;;;;;;;36.85;21.65;;;;;;;-141.50;100.00;63355.56;5085735;28;20052;-79
2022/04/29 03:07:35;;;;;;;40.05;22.63;;;;;;;-141.50;100.00;63355.56;5090692;28;20075;-79
2022/04/29 03:10:05;;;;;;;43.42;23.25;;;;;;;-141.50;100.00;63355.56;5092268;28;20543;-81
2022/04/29 03:12:31;;;;;;;50.40;25.15;;;;;;;-141.50;100.00;63355.56;5091927;28;20056;-81
2022/04/29 03:15:15;;;;;;;54.33;25.63;;;;;;;-141.50;100.00;63355.56;5092694;28;20520;-79
2022/04/29 03:20:41;;;;;;;46.13;24.27;;;;;;;-141.50;100.00;63355.56;5082535;28;20113;-79
2022/04/29 03:23:08;;;;;;;39.88;22.30;;;;;;;-141.50;100.00;63355.56;5103593;28;20113;-80
2022/04/29 03:25:35;;;;;;;43.40;21.10;;;;;;;-141.50;100.00;63355.56;5090942;28;20067;-79
2022/04/29 03:28:05;;;;;;;35.67;19.48;;;;;;;-141.50;100.00;63355.56;5090504;28;20079;-79
2022/04/29 03:30:31;;;;;;;36.38;19.83;;;;;;;-141.50;100.00;63355.56;5092980;28;20047;-79
2022/04/29 03:33:00;;;;;;;35.38;19.45;;;;;;;-141.50;100.00;63355.56;5093435;28;20048;-80
2022/04/29 03:35:31;;;;;;;33.88;18.58;;;;;;;-141.50;100.00;63355.56;5095370;28;20091;-78
2022/04/29 03:38:21;;;;;;;27.98;17.05;;;;;;;-141.50;100.00;63355.56;5096792;28;20052;-79
2022/04/29 03:40:47;;;;;;;26.92;14.95;;;;;;;-141.50;100.00;63355.56;5100327;28;20078;-78
2022/04/29 03:43:16;;;;;;;29.88;16.90;;;;;;;-141.50;100.00;63355.56;5104183;28;20285;-80
2022/04/29 03:45:47;;;;;;;26.75;15.85;;;;;;;-141.50;100.00;63355.56;5101825;28;20048;-79
2022/04/29 03:48:16;;;;;;;30.02;15.90;;;;;;;-141.50;100.00;63355.56;5095952;28;20496;-78
2022/04/29 03:50:43;;;;;;;26.10;15.93;;;;;;;-141.50;100.00;63355.56;5097039;28;20418;-79
2022/04/29 03:53:10;;;;;;;28.33;16.70;;;;;;;-141.50;100.00;63355.56;5094962;28;20079;-79
2022/04/29 03:55:38;;;;;;;29.77;16.23;;;;;;;-141.50;100.00;63355.56;5094121;28;20074;-80
2022/04/29 03:58:04;;;;;;;31.33;16.50;;;;;;;-141.50;100.00;63355.56;5085448;28;20560;-79
2022/04/29 04:00:34;;;;;;;28.95;16.52;;;;;;;-141.50;100.00;63355.56;5082263;28;20117;-79
2022/04/29 04:03:05;;;;;;;29.50;17.15;;;;;;;-141.50;100.00;63355.56;5075382;28;20211;-78
2022/04/29 04:05:41;;;;;;;30.88;17.13;;;;;;;-141.50;100.00;63355.56;5074710;28;20595;-79
2022/04/29 04:08:19;;;;;;;32.90;16.27;;;;;;;-141.50;100.00;63355.56;5075223;28;20103;-80
2022/04/29 04:10:46;;;;;;;29.70;16.52;;;;;;;-141.50;100.00;63355.56;5074484;28;20052;-80
2022/04/29 04:13:13;;;;;;;28.45;16.75;;;;;;;-141.50;100.00;63355.56;5075676;28;20048;-80
2022/04/29 04:15:40;;;;;;;28.48;16.73;;;;;;;-141.50;100.00;63355.56;5074121;28;20052;-80
2022/04/29 04:18:06;;;;;;;31.17;17.27;;;;;;;-141.50;100.00;63355.56;5075424;28;20059;-81
2022/04/29 04:20:33;;;;;;;29.35;16.80;;;;;;;-141.50;100.00;63355.56;5075467;28;20048;-80
2022/04/29 04:23:01;;;;;;;31.50;18.02;;;;;;;-141.50;100.00;63355.56;5073782;28;20053;-81
2022/04/29 04:25:30;;;;;;;29.55;16.75;;;;;;;-141.50;100.00;63355.56;5075841;28;20068;-80
2022/04/29 04:27:57;;;;;;;30.27;16.30;;;;;;;-141.50;100.00;63355.56;5084193;28;20044;-79
2022/04/29 04:30:23;;;;;;;31.25;17.23;;;;;;;-141.50;100.00;63355.56;5088285;28;20071;-79
2022/04/29 04:32:57;;;;;;;36.08;18.42;;;;;;;-141.50;100.00;63355.56;5074355;28;20052;-80
2022/04/29 04:35:24;;;;;;;38.88;18.75;;;;;;;-141.50;100.00;63355.56;5076561;28;20044;-80
2022/04/29 04:37:55;;;;;;;32.42;18.80;;;;;;;-141.50;100.00;63355.56;5077988;28;20479;-80
2022/04/29 04:40:45;;;;;;;36.08;19.42;;;;;;;-141.50;100.00;63355.56;5077760;28;20082;-81
2022/04/29 04:43:16;;;;;;;32.90;19.88;;;;;;;-141.50;100.00;63355.56;5076910;28;20098;-81
2022/04/29 04:45:46;;;;;;;35.17;20.17;;;;;;;-141.50;100.00;63355.56;5077736;28;20048;-80
2022/04/29 04:48:13;;;;;;;40.97;21.65;;;;;;;-141.50;100.00;63355.56;5076623;28;20090;-81
2022/04/29 04:50:39;;;;;;;39.75;20.15;;;;;;;-141.50;100.00;63355.56;5081477;28;20075;-81
2022/04/29 04:53:08;;;;;;;43.40;19.75;;;;;;;-141.50;100.00;63355.56;5075110;28;20316;-80
2022/04/29 04:55:36;;;;;;;36.83;19.70;;;;;;;-141.50;100.00;63355.56;5094935;28;20109;-81
2022/04/29 04:58:09;;;;;;;39.85;20.58;;;;;;;-141.50;100.00;63355.56;5091916;28;20488;-82
2022/04/29 05:00:45;;;;;;;35.05;19.58;;;;;;;-141.50;100.00;63355.56;5078617;28;20152;-82
2022/04/29 05:03:12;;;;;;;38.78;21.52;;;;;;;-141.50;100.00;63355.56;5089826;28;20051;-81
2022/04/29 05:05:39;;;;;;;42.10;22.48;;;;;;;-141.50;100.00;63355.56;5104226;28;20044;-79
2022/04/29 05:08:11;;;;;;;55.65;24.70;;;;;;;-141.50;100.00;63355.56;5086696;28;20139;-81
2022/04/29 05:10:40;;;;;;;53.45;24.63;;;;;;;-141.50;100.00;63355.56;5083259;28;20052;-80
2022/04/29 05:13:09;;;;;;;45.70;23.75;;;;;;;-141.50;100.00;63355.56;5085771;28;20479;-78
2022/04/29 05:15:38;;;;;;;46.70;22.65;;;;;;;-141.50;100.00;63355.56;5091674;28;20052;-78
2022/04/29 05:18:05;;;;;;;43.55;23.45;;;;;;;-141.50;100.00;63355.56;5098897;28;20323;-80
2022/04/29 05:20:31;;;;;;;49.13;24.60;;;;;;;-141.50;100.00;63355.56;5097786;28;20142;-79
2022/04/29 05:23:05;;;;;;;43.35;23.58;;;;;;;-141.50;100.00;63355.56;5099500;28;20256;-78
2022/04/29 05:25:34;;;;;;;43.70;23.80;;;;;;;-141.50;100.00;63355.56;5092710;28;20052;-79
2022/04/29 05:28:07;;;;;;;43.95;23.83;;;;;;;-141.50;100.00;63355.56;5078301;28;20048;-80
2022/04/29 05:30:34;;;;;;;41.13;23.02;;;;;;;-141.50;100.00;63355.56;5094596;28;20067;-79
2022/04/29 05:33:04;;;;;;;43.30;22.77;;;;;;;-141.50;100.00;63355.56;5074919;28;20052;-79
2022/04/29 05:35:34;;;;;;;42.50;22.98;;;;;;;-141.50;100.00;63355.56;5075217;28;20063;-79
2022/04/29 05:38:01;;;;;;;41.25;22.90;;;;;;;-141.50;100.00;63355.56;5084987;28;20062;-79
2022/04/29 05:43:13;;;;;;;39.93;21.40;;;;;;;-141.50;100.00;63355.56;5087066;28;20080;-79
2022/04/29 05:45:42;;;;;;;36.97;22.67;;;;;;;-141.50;100.00;63355.56;5097098;28;20056;-79
2022/04/29 05:48:12;;;;;;;41.53;23.23;;;;;;;-141.50;100.00;63355.56;5099548;28;20216;-79
2022/04/29 05:50:39;;;;;;;43.58;22.02;;;;;;;-141.50;100.00;63355.56;5080718;28;20075;-80
2022/04/29 05:53:05;;;;;;;42.88;21.88;;;;;;;-141.50;100.00;63355.56;5090801;28;20127;-79
2022/04/29 05:55:34;;;;;;;35.55;21.30;;;;;;;-141.50;100.00;63355.56;5088815;28;20094;-80
2022/04/29 05:58:22;;;;;;;39.83;22.35;;;;;;;-141.50;100.00;63355.56;5068437;28;20059;-78
2022/04/29 06:00:52;;;;;;;42.85;23.63;;;;;;;-141.50;100.00;63355.56;5078706;28;20066;-79
2022/04/29 06:03:18;;;;;;;35.97;21.10;;;;;;;-141.50;100.00;63355.56;5080492;28;20056;-77
2022/04/29 06:05:48;;;;;;;34.10;20.58;;;;;;;-141.50;100.00;63355.56;5084985;28;20079;-80
2022/04/29 06:08:14;;;;;;;33.63;20.38;;;;;;;-141.50;100.00;63355.56;5086583;28;20052;-80
2022/04/29 06:10:41;;;;;;;36.63;20.90;;;;;;;-141.50;100.00;63355.56;5086825;28;20423;-79
2022/04/29 06:13:12;;;;;;;39.50;21.25;;;;;;;-141.50;100.00;63355.56;5079115;28;20083;-78
2022/04/29 06:15:41;;;;;;;40.55;21.13;;;;;;;-141.50;100.00;63355.56;5077036;28;20055;-79
2022/04/29 06:18:08;;;;;;;35.55;21.63;;;;;;;-141.50;100.00;63355.56;5072994;28;20076;-78
2022/04/29 06:20:34;;;;;;;39.92;22.13;;;;;;;-141.50;100.00;63355.56;5079880;28;20152;-79
2022/04/29 06:23:01;;;;;;;33.42;20.08;;;;;;;-141.50;100.00;63355.56;5098950;28;20142;-79
2022/04/29 06:25:32;;;;;;;34.83;20.02;;;;;;;-141.50;100.00;63355.56;5084116;28;20055;-79
2022/04/29 06:27:59;;;;;;;33.00;19.73;;;;;;;-141.50;100.00;63355.56;5099533;28;20052;-79
2022/04/29 06:30:25;;;;;;;49.38;24.48;;;;;;;-141.50;100.00;63355.56;5097165;28;20048;-80
2022/04/29 06:33:12;;;;;;;36.85;19.67;;;;;;;-141.50;100.00;63355.56;5090534;28;20143;-81
2022/04/29 06:35:47;;;;;;;42.47;22.38;;;;;;;-141.50;100.00;63355.56;5076635;28;20219;-79
2022/04/29 06:38:14;;;;;;;;;;;;;;;-141.50;100.00;63355.56;5077661;28;20048;-79
2022/04/29 06:40:43;;;;;;;42.40;20.35;;;;;;;-141.50;100.00;63355.56;5077024;28;19932;-79
2022/04/29 06:43:09;;;;;;;39.55;21.70;;;;;;;-141.50;100.00;63355.56;5078281;28;20474;-79
2022/04/29 06:45:36;;;;;;;38.60;22.02;;;;;;;-141.50;100.00;63355.56;5070741;28;20052;-80
2022/04/29 06:48:03;;;;;;;37.33;20.48;;;;;;;-141.50;100.00;63355.56;5070693;28;20052;-80
2022/04/29 06:50:29;;;;;;;37.15;19.10;;;;;;;-141.50;100.00;63355.56;5072658;28;20053;-80
2022/04/29 06:52:56;;;;;;;38.33;19.92;;;;;;;-141.50;100.00;63355.56;5083763;28;20071;-80
2022/04/29 06:55:22;;;;;;;38.47;20.58;;;;;;;-141.50;100.00;63355.56;5102104;28;20060;-80
2022/04/29 06:57:49;;;;;;;36.97;18.98;;;;;;;-141.50;100.00;63355.56;5089489;28;20082;-79
2022/04/29 07:00:15;;;;;;;36.67;20.05;;;;;;;-141.50;100.00;63355.56;5084196;28;20100;-79
2022/04/29 07:02:43;;;;;;;36.67;18.80;;;;;;;-141.50;100.00;63355.56;5077343;28;20488;-78
2022/04/29 07:05:10;;;;;;;37.08;19.52;;;;;;;-141.50;100.00;63355.56;5083993;28;20110;-79
2022/04/29 07:07:37;;;;;;;33.00;19.23;;;;;;;-141.50;100.00;63355.56;5092170;28;20110;-80
2022/04/29 07:10:08;;;;;;;31.92;19.17;;;;;;;-141.50;100.00;63355.56;5108023;28;20048;-77
2022/04/29 07:12:42;;;;;;;44.15;17.17;;;;;;;-141.50;100.00;63355.56;5088001;28;20129;-78
2022/04/29 07:15:13;;;;;;;31.98;15.85;;;;;;;-141.50;100.00;63355.56;5086634;28;20060;-78
2022/04/29 07:17:42;;;;;;;30.52;16.88;;;;;;;-141.50;100.00;63355.56;5092585;28;20140;-79
2022/04/29 07:20:10;;;;;;;25.52;14.65;;;;;;;-141.50;100.00;63355.56;5103908;28;20083;-79
2022/04/29 07:22:38;;;;;;;27.42;15.77;;;;;;;-141.50;100.00;63355.56;5103592;28;20055;-80
2022/04/29 07:25:06;;;;;;;31.75;14.98;;;;;;;-141.50;100.00;63355.56;5087252;28;20044;-80
2022/04/29 07:27:33;;;;;;;27.48;14.73;;;;;;;-141.50;100.00;63355.56;5081997;28;20044;-79
2022/04/29 07:30:03;;;;;;;28.63;15.27;;;;;;;-141.50;100.00;63355.56;5081248;28;20132;-79
2022/04/29 07:32:32;;;;;;;31.48;14.95;;;;;;;-141.50;100.00;63355.56;5073863;28;20171;-79
2022/04/29 07:43:21;;;;;;;25.52;14.15;;;;;;;-141.50;100.00;63355.56;5082294;28;20137;-80
2022/04/29 07:45:51;;;;;;;28.95;13.68;;;;;;;-141.50;100.00;63355.56;5079906;28;20140;-79
2022/04/29 07:48:22;;;;;;;25.95;13.07;;;;;;;-141.50;100.00;63355.56;5083199;28;20048;-80
2022/04/29 07:50:50;;;;;;;25.98;12.80;;;;;;;-141.50;100.00;63355.56;5081301;28;20052;-79
2022/04/29 07:53:19;;;;;;;18.30;11.38;;;;;;;-141.50;100.00;63355.56;5081475;28;20063;-78
2022/04/29 07:55:48;;;;;;;25.25;9.88;;;;;;;-141.50;100.00;63355.56;5079969;28;20078;-78
2022/04/29 07:58:17;;;;;;;18.67;10.65;;;;;;;-141.50;100.00;63355.56;5078619;28;20053;-81
2022/04/29 08:00:46;;;;;;;18.52;8.82;;;;;;;-141.50;100.00;63355.56;5087626;28;20048;-80
2022/04/29 08:03:33;;;;;;;18.27;9.07;;;;;;;-141.50;100.00;63355.56;5099321;28;20484;-79
2022/04/29 08:06:00;;;;;;;19.52;9.02;;;;;;;-141.50;100.00;63355.56;5100727;28;20052;-78
2022/04/29 08:08:27;;;;;;;18.17;9.90;;;;;;;-141.50;100.00;63355.56;5100950;28;20044;-80
2022/04/29 08:10:54;;;;;;;21.73;9.40;;;;;;;-141.50;100.00;63355.56;5097350;28;20048;-79
2022/04/29 08:13:21;;;;;;;18.05;8.45;;;;;;;-141.50;100.00;63355.56;5079685;28;20048;-79
2022/04/29 08:15:50;;;;;;;15.65;7.90;;;;;;;-141.50;100.00;63355.56;5079729;28;20056;-78
2022/04/29 08:18:19;;;;;;;14.77;7.70;;;;;;;-141.50;100.00;63355.56;5074344;28;20040;-79
2022/04/29 08:20:50;;;;;;;18.60;7.93;;;;;;;-141.50;100.00;63355.56;5074274;28;20183;-78
2022/04/29 08:23:27;;;;;;;15.98;7.20;;;;;;;-141.50;100.00;63355.56;5074169;28;20052;-79
2022/04/29 08:25:57;;;;;;;14.85;7.05;;;;;;;-141.50;100.00;63355.56;5074991;28;20241;-79
2022/04/29 08:28:25;;;;;;;16.88;7.22;;;;;;;-141.50;100.00;63355.56;5091873;28;20056;-79
2022/04/29 08:31:04;;;;;;;14.82;7.15;;;;;;;-141.50;100.00;63355.56;5083282;28;20131;-80
2022/04/29 08:33:31;;;;;;;11.50;7.30;;;;;;;-141.50;100.00;63355.56;5086061;28;20052;-78
2022/04/29 08:35:59;;;;;;;16.45;7.40;;;;;;;-141.50;100.00;63355.56;5090581;28;20044;-79
2022/04/29 08:38:26;;;;;;;16.80;8.05;;;;;;;-141.50;100.00;63355.56;5088181;28;20059;-78
2022/04/29 08:40:59;;;;;;;15.85;7.03;;;;;;;-141.50;100.00;63355.56;5087879;28;20040;-77
2022/04/29 08:43:27;;;;;;;19.30;7.45;;;;;;;-141.50;100.00;63355.56;5086388;28;20049;-79
2022/04/29 08:45:55;;;;;;;15.25;7.13;;;;;;;-141.50;100.00;63355.56;5080556;28;20048;-79
2022/04/29 08:48:21;;;;;;;14.13;7.38;;;;;;;-141.50;100.00;63355.56;5080024;28;20044;-80
2022/04/29 08:50:50;;;;;;;19.85;6.97;;;;;;;-141.50;100.00;63355.56;5081395;28;20227;-78
2022/04/29 08:53:17;;;;;;;14.48;7.28;;;;;;;-141.50;100.00;63355.56;5080754;28;20052;-79
2022/04/29 08:58:39;;;;;;;17.40;8.35;;;;;;;-141.50;100.00;63355.56;5090139;28;20519;-80
2022/04/29 09:01:09;;;;;;;16.52;8.32;;;;;;;-141.50;100.00;63355.56;5087733;28;20049;-80
2022/04/29 09:03:37;;;;;;;14.05;7.90;;;;;;;-141.50;100.00;63355.56;5077489;28;20339;-79
2022/04/29 09:06:17;;;;;;;20.97;8.47;;;;;;;-141.50;100.00;63355.56;5078260;28;20066;-79
2022/04/29 09:08:49;;;;;;;19.33;8.32;;;;;;;-141.50;100.00;63355.56;5093752;28;20055;-79
2022/04/29 09:11:26;;;;;;;17.70;8.43;;;;;;;-141.50;100.00;63355.56;5103297;28;20187;-79
2022/04/29 09:13:53;;;;;;;19.73;8.45;;;;;;;-141.50;100.00;63355.56;5103558;28;20492;-79
2022/04/29 09:16:20;;;;;;;20.50;8.60;;;;;;;-141.50;100.00;63355.56;5104134;28;20052;-79
2022/04/29 09:19:04;;;;;;;19.35;8.60;;;;;;;-141.50;100.00;63355.56;5099169;28;20084;-80
2022/04/29 09:21:33;;;;;;;17.73;8.52;;;;;;;-141.50;100.00;63355.56;5104016;28;20137;-78
2022/04/29 09:24:10;;;;;;;20.73;9.13;;;;;;;-141.50;100.00;63355.56;5103743;28;20077;-79
2022/04/29 09:26:43;;;;;;;14.70;8.07;;;;;;;-141.50;100.00;63355.56;5104518;28;20490;-78
2022/04/29 09:29:13;;;;;;;14.60;8.18;;;;;;;-141.50;100.00;63355.56;5101746;28;20044;-79
2022/04/29 09:32:01;;;;;;;19.55;8.32;;;;;;;-141.50;100.00;63355.56;5082607;28;20054;-79
2022/04/29 09:34:46;;;;;;;16.73;8.20;;;;;;;-141.50;100.00;63355.56;5082599;28;20448;-79
2022/04/29 09:37:14;;;;;;;17.92;8.70;;;;;;;-141.50;100.00;63355.56;5079914;28;20075;-79
2022/04/29 09:40:00;;;;;;;19.90;9.15;;;;;;;-141.50;100.00;63355.56;5071126;28;20049;-79
2022/04/29 09:42:40;;;;;;;18.00;9.25;;;;;;;-141.50;100.00;63355.56;5076046;28;20054;-80
2022/04/29 09:45:11;;;;;;;17.17;8.82;;;;;;;-141.50;100.00;63355.56;5077836;28;20052;-80
2022/04/29 09:47:43;;;;;;;16.50;8.50;;;;;;;-141.50;100.00;63355.56;5077765;28;20087;-80
2022/04/29 09:50:15;;;;;;;13.75;7.63;;;;;;;-141.50;100.00;63355.56;5095287;28;20616;-80
2022/04/29 09:52:44;;;;;;;16.55;7.60;;;;;;;-141.50;100.00;63355.56;5088179;28;20090;-80
2022/04/29 09:55:19;;;;;;;16.73;8.20;;;;;;;-141.50;100.00;63355.56;5091359;28;20082;-78
2022/04/29 09:57:51;;;;;;;15.75;8.02;;;;;;;-141.50;100.00;63355.56;5088912;28;20101;-80
2022/04/29 10:00:20;;;;;;;17.75;7.88;;;;;;;-141.50;100.00;63355.56;5084275;28;20468;-78
2022/04/29 10:02:49;;;;;;;16.08;7.97;;;;;;;-141.50;100.00;63355.56;5078445;28;20052;-80
2022/04/29 10:05:19;;;;;;;16.33;6.43;;;;;;;-141.50;100.00;63355.56;5069555;28;20048;-79
2022/04/29 10:07:47;;;;;;;12.05;6.68;;;;;;;-141.50;100.00;63355.56;5076253;28;20088;-78
2022/04/29 10:10:14;;;;;;;13.77;6.75;;;;;;;-141.50;100.00;63355.56;5092213;28;20105;-77
2022/04/29 10:12:47;;;;;;;18.30;6.75;;;;;;;-141.50;100.00;63355.56;5099985;28;20067;-78
2022/04/29 10:15:18;;;;;;;16.48;6.00;;;;;;;-141.50;100.00;63355.56;5096278;28;20109;-81
2022/04/29 10:23:20;;;;;;;14.13;6.07;;;;;;;-141.50;100.00;63355.56;5074792;28;20546;-77
2022/04/29 10:25:47;;;;;;;81.32;16.13;;;;;;;-141.50;100.00;63355.56;5077665;28;20047;-78
2022/04/29 10:28:20;;;;;;;14.07;6.13;;;;;;;-141.50;100.00;63355.56;5073607;28;20052;-77
2022/04/29 10:31:03;;;;;;;13.65;6.05;;;;;;;-141.50;100.00;63355.56;5081050;28;20118;-79
2022/04/29 10:33:36;;;;;;;13.93;5.63;;;;;;;-141.50;100.00;63355.56;5086195;28;20427;-79
2022/04/29 10:36:11;;;;;;;14.65;6.28;;;;;;;-141.50;100.00;63355.56;5071464;28;20175;-79
2022/04/29 10:38:43;;;;;;;14.70;6.25;;;;;;;-141.50;100.00;63355.56;5067416;28;20048;-78
2022/04/29 10:41:14;;;;;;;13.50;6.28;;;;;;;-141.50;100.00;63355.56;5075829;28;20076;-79
2022/04/29 10:43:45;;;;;;;14.50;6.15;;;;;;;-141.50;100.00;63355.56;5079503;28;20577;-79
2022/04/29 10:46:13;;;;;;;10.48;5.68;;;;;;;-141.50;100.00;63355.56;5088385;28;20079;-79
2022/04/29 10:48:42;;;;;;;11.77;5.50;;;;;;;-141.50;100.00;63355.56;5084248;28;20048;-80
2022/04/29 10:51:09;;;;;;;16.23;5.70;;;;;;;-141.50;100.00;63355.56;5091821;28;20105;-78
2022/04/29 10:53:38;;;;;;;14.55;5.28;;;;;;;-141.50;100.00;63355.56;5082830;28;20063;-79
2022/04/29 10:56:30;;;;;;;8.55;4.55;;;;;;;-141.50;100.00;63355.56;5097421;28;20485;-77
2022/04/29 10:59:03;;;;;;;14.35;5.65;;;;;;;-141.50;100.00;63355.56;5090401;28;20044;-77
2022/04/29 11:01:33;;;;;;;11.00;5.15;;;;;;;-141.50;100.00;63355.56;5097108;28;20112;-79
2022/04/29 11:04:25;;;;;;;12.73;5.47;;;;;;;-141.50;100.00;63355.56;5097184;28;20478;-79
2022/04/29 11:06:52;;;;;;;11.27;5.20;;;;;;;-141.50;100.00;63355.56;5079603;28;20130;-79
2022/04/29 11:09:25;;;;;;;12.02;5.65;;;;;;;-141.50;100.00;63355.56;5079922;28;20066;-77
2022/04/29 11:11:56;;;;;;;10.70;5.60;;;;;;;-141.50;100.00;63355.56;5081721;28;20540;-79
2022/04/29 11:14:25;;;;;;;12.40;5.25;;;;;;;-141.50;100.00;63355.56;5076475;28;20087;-80
2022/04/29 11:16:55;;;;;;;13.00;5.43;;;;;;;-141.50;100.00;63355.56;5076238;28;20748;-78
2022/04/29 11:19:34;;;;;;;13.15;5.32;;;;;;;-141.50;100.00;63355.56;5077971;28;20102;-80
2022/04/29 11:25:00;;;;;;;15.30;6.20;;;;;;;-141.50;100.00;63355.56;5076086;28;20083;-79
2022/04/29 11:27:31;;;;;;;10.32;5.28;;;;;;;-141.50;100.00;63355.56;5073956;28;20049;-78
2022/04/29 11:30:01;;;;;;;11.98;5.88;;;;;;;-141.50;100.00;63355.56;5072604;28;20102;-79
2022/04/29 11:32:29;;;;;;;10.68;5.38;;;;;;;-141.50;100.00;63355.56;5096754;28;20040;-80
2022/04/29 11:35:03;;;;;;;11.20;5.55;;;;;;;-141.50;100.00;63355.56;5098936;28;20522;-78